sensor_id;sensor_type;location;lat;lon;timestamp;pressure;altitude;pressure_sealevel;temperature
64394;BMP280;50712;49.506;10.400;2022-09-06T00:00:01;98237.31;;;22.39
64394;BMP280;50712;49.506;10.400;2022-09-06T00:00:42;98237.31;;;22.39
64394;BMP280;50712;49.506;10.400;2022-09-06T00:01:13;98242.88;;;22.39
64394;BMP280;50712;49.506;10.400;2022-09-06T00:01:44;98241.34;;;22.38
64394;BMP280;50712;49.506;10.400;2022-09-06T00:02:14;98233.00;;;22.38
64394;BMP280;50712;49.506;10.400;2022-09-06T00:02:45;98232.25;;;22.38
64394;BMP280;50712;49.506;10.400;2022-09-06T00:03:16;98243.34;;;22.38
64394;BMP280;50712;49.506;10.400;2022-09-06T00:03:46;98239.81;;;22.37
64394;BMP280;50712;49.506;10.400;2022-09-06T00:04:17;98237.81;;;22.38
64394;BMP280;50712;49.506;10.400;2022-09-06T00:04:47;98235.56;;;22.36
64394;BMP280;50712;49.506;10.400;2022-09-06T00:05:18;98242.59;;;22.37
64394;BMP280;50712;49.506;10.400;2022-09-06T00:05:49;98234.84;;;22.36
64394;BMP280;50712;49.506;10.400;2022-09-06T00:06:20;98241.88;;;22.37
64394;BMP280;50712;49.506;10.400;2022-09-06T00:06:50;98228.50;;;22.35
64394;BMP280;50712;49.506;10.400;2022-09-06T00:07:21;98235.56;;;22.36
64394;BMP280;50712;49.506;10.400;2022-09-06T00:07:51;98240.38;;;22.36
64394;BMP280;50712;49.506;10.400;2022-09-06T00:08:22;98242.41;;;22.35
64394;BMP280;50712;49.506;10.400;2022-09-06T00:08:52;98241.63;;;22.35
64394;BMP280;50712;49.506;10.400;2022-09-06T00:09:23;98244.41;;;22.35
64394;BMP280;50712;49.506;10.400;2022-09-06T00:09:53;98242.94;;;22.34
64394;BMP280;50712;49.506;10.400;2022-09-06T00:10:24;98249.22;;;22.34
64394;BMP280;50712;49.506;10.400;2022-09-06T00:10:55;98238.63;;;22.33
64394;BMP280;50712;49.506;10.400;2022-09-06T00:11:27;98239.38;;;22.33
64394;BMP280;50712;49.506;10.400;2022-09-06T00:11:57;98240.69;;;22.32
64394;BMP280;50712;49.506;10.400;2022-09-06T00:12:28;98242.69;;;22.32
64394;BMP280;50712;49.506;10.400;2022-09-06T00:12:59;98246.97;;;22.33
64394;BMP280;50712;49.506;10.400;2022-09-06T00:13:31;98251.03;;;22.32
64394;BMP280;50712;49.506;10.400;2022-09-06T00:14:02;98246.22;;;22.32
64394;BMP280;50712;49.506;10.400;2022-09-06T00:14:32;98244.72;;;22.31
64394;BMP280;50712;49.506;10.400;2022-09-06T00:15:03;98245.25;;;22.30
64394;BMP280;50712;49.506;10.400;2022-09-06T00:15:35;98242.47;;;22.30
64394;BMP280;50712;49.506;10.400;2022-09-06T00:16:07;98245.25;;;22.30
64394;BMP280;50712;49.506;10.400;2022-09-06T00:16:39;98241.69;;;22.29
64394;BMP280;50712;49.506;10.400;2022-09-06T00:17:09;98245.78;;;22.28
64394;BMP280;50712;49.506;10.400;2022-09-06T00:17:40;98248.53;;;22.28
64394;BMP280;50712;49.506;10.400;2022-09-06T00:18:10;98246.53;;;22.29
64394;BMP280;50712;49.506;10.400;2022-09-06T00:18:41;98239.44;;;22.28
64394;BMP280;50712;49.506;10.400;2022-09-06T00:19:12;98240.22;;;22.28
64394;BMP280;50712;49.506;10.400;2022-09-06T00:19:43;98242.22;;;22.28
64394;BMP280;50712;49.506;10.400;2022-09-06T00:20:13;98243.53;;;22.27
64394;BMP280;50712;49.506;10.400;2022-09-06T00:20:44;98243.53;;;22.27
64394;BMP280;50712;49.506;10.400;2022-09-06T00:21:16;98243.53;;;22.27
64394;BMP280;50712;49.506;10.400;2022-09-06T00:21:50;98244.28;;;22.27
64394;BMP280;50712;49.506;10.400;2022-09-06T00:22:20;98245.53;;;22.26
64394;BMP280;50712;49.506;10.400;2022-09-06T00:22:50;98242.00;;;22.26
64394;BMP280;50712;49.506;10.400;2022-09-06T00:23:21;98244.78;;;22.26
64394;BMP280;50712;49.506;10.400;2022-09-06T00:23:51;98245.53;;;22.26
64394;BMP280;50712;49.506;10.400;2022-09-06T00:24:22;98247.56;;;22.26
64394;BMP280;50712;49.506;10.400;2022-09-06T00:24:52;98250.13;;;22.24
64394;BMP280;50712;49.506;10.400;2022-09-06T00:25:23;98241.78;;;22.24
64394;BMP280;50712;49.506;10.400;2022-09-06T00:26:00;98248.09;;;22.24
64394;BMP280;50712;49.506;10.400;2022-09-06T00:26:32;98243.81;;;22.23
64394;BMP280;50712;49.506;10.400;2022-09-06T00:27:03;98251.38;;;22.23
64394;BMP280;50712;49.506;10.400;2022-09-06T00:27:34;98249.84;;;22.22
64394;BMP280;50712;49.506;10.400;2022-09-06T00:28:05;98240.81;;;22.21
64394;BMP280;50712;49.506;10.400;2022-09-06T00:28:36;98241.53;;;22.22
64394;BMP280;50712;49.506;10.400;2022-09-06T00:29:06;98242.84;;;22.21
64394;BMP280;50712;49.506;10.400;2022-09-06T00:29:37;98240.81;;;22.21
64394;BMP280;50712;49.506;10.400;2022-09-06T00:30:07;98239.31;;;22.20
64394;BMP280;50712;49.506;10.400;2022-09-06T00:30:39;98241.31;;;22.20
64394;BMP280;50712;49.506;10.400;2022-09-06T00:31:13;98239.31;;;22.20
64394;BMP280;50712;49.506;10.400;2022-09-06T00:31:53;98239.03;;;22.18
64394;BMP280;50712;49.506;10.400;2022-09-06T00:32:24;98242.59;;;22.19
64394;BMP280;50712;49.506;10.400;2022-09-06T00:32:55;98241.09;;;22.18
64394;BMP280;50712;49.506;10.400;2022-09-06T00:33:25;98240.34;;;22.17
64394;BMP280;50712;49.506;10.400;2022-09-06T00:33:56;98232.00;;;22.17
64394;BMP280;50712;49.506;10.400;2022-09-06T00:34:26;98232.00;;;22.17
64394;BMP280;50712;49.506;10.400;2022-09-06T00:34:57;98226.97;;;22.16
64394;BMP280;50712;49.506;10.400;2022-09-06T00:35:27;98235.31;;;22.16
64394;BMP280;50712;49.506;10.400;2022-09-06T00:35:58;98239.38;;;22.15
64394;BMP280;50712;49.506;10.400;2022-09-06T00:36:29;98239.91;;;22.13
64394;BMP280;50712;49.506;10.400;2022-09-06T00:37:00;98240.63;;;22.14
64394;BMP280;50712;49.506;10.400;2022-09-06T00:37:30;98244.69;;;22.13
64394;BMP280;50712;49.506;10.400;2022-09-06T00:38:01;98243.94;;;22.12
64394;BMP280;50712;49.506;10.400;2022-09-06T00:38:31;98243.19;;;22.12
64394;BMP280;50712;49.506;10.400;2022-09-06T00:39:02;98241.69;;;22.11
64394;BMP280;50712;49.506;10.400;2022-09-06T00:39:32;98249.25;;;22.10
64394;BMP280;50712;49.506;10.400;2022-09-06T00:40:04;98250.53;;;22.09
64394;BMP280;50712;49.506;10.400;2022-09-06T00:40:35;98247.75;;;22.09
64394;BMP280;50712;49.506;10.400;2022-09-06T00:41:06;98247.53;;;22.07
64394;BMP280;50712;49.506;10.400;2022-09-06T00:41:37;98251.06;;;22.08
64394;BMP280;50712;49.506;10.400;2022-09-06T00:42:08;98246.75;;;22.07
64394;BMP280;50712;49.506;10.400;2022-09-06T00:42:40;98245.28;;;22.06
64394;BMP280;50712;49.506;10.400;2022-09-06T00:43:11;98247.31;;;22.05
64394;BMP280;50712;49.506;10.400;2022-09-06T00:43:42;98250.09;;;22.05
64394;BMP280;50712;49.506;10.400;2022-09-06T00:44:12;98245.78;;;22.04
64394;BMP280;50712;49.506;10.400;2022-09-06T00:44:43;98246.56;;;22.05
64394;BMP280;50712;49.506;10.400;2022-09-06T00:45:13;98243.03;;;22.04
64394;BMP280;50712;49.506;10.400;2022-09-06T00:45:44;98245.78;;;22.04
64394;BMP280;50712;49.506;10.400;2022-09-06T00:46:17;98250.09;;;22.05
64394;BMP280;50712;49.506;10.400;2022-09-06T00:46:50;98252.09;;;22.05
64394;BMP280;50712;49.506;10.400;2022-09-06T00:47:23;98249.34;;;22.05
64394;BMP280;50712;49.506;10.400;2022-09-06T00:47:56;98248.56;;;22.04
64394;BMP280;50712;49.506;10.400;2022-09-06T00:48:28;98247.06;;;22.03
64394;BMP280;50712;49.506;10.400;2022-09-06T00:49:04;98245.56;;;22.02
64394;BMP280;50712;49.506;10.400;2022-09-06T00:49:42;98254.41;;;22.01
64394;BMP280;50712;49.506;10.400;2022-09-06T00:50:16;98250.13;;;22.00
64394;BMP280;50712;49.506;10.400;2022-09-06T00:50:49;98249.91;;;21.98
64394;BMP280;50712;49.506;10.400;2022-09-06T00:51:23;98254.69;;;21.97
64394;BMP280;50712;49.506;10.400;2022-09-06T00:52:02;98251.69;;;21.95
64394;BMP280;50712;49.506;10.400;2022-09-06T00:52:36;98246.13;;;21.95
64394;BMP280;50712;49.506;10.400;2022-09-06T00:53:08;98250.19;;;21.94
64394;BMP280;50712;49.506;10.400;2022-09-06T00:53:39;98256.47;;;21.95
64394;BMP280;50712;49.506;10.400;2022-09-06T00:54:10;98255.00;;;21.94
64394;BMP280;50712;49.506;10.400;2022-09-06T00:54:41;98256.47;;;21.95
64394;BMP280;50712;49.506;10.400;2022-09-06T00:55:12;98255.00;;;21.94
64394;BMP280;50712;49.506;10.400;2022-09-06T00:55:43;98261.81;;;21.93
64394;BMP280;50712;49.506;10.400;2022-09-06T00:56:14;98267.38;;;21.93
64394;BMP280;50712;49.506;10.400;2022-09-06T00:56:45;98253.22;;;21.91
64394;BMP280;50712;49.506;10.400;2022-09-06T00:57:15;98251.75;;;21.90
64394;BMP280;50712;49.506;10.400;2022-09-06T00:57:47;98260.06;;;21.90
64394;BMP280;50712;49.506;10.400;2022-09-06T00:58:21;98259.34;;;21.89
64394;BMP280;50712;49.506;10.400;2022-09-06T00:58:52;98264.88;;;21.89
64394;BMP280;50712;49.506;10.400;2022-09-06T00:59:24;98258.56;;;21.89
64394;BMP280;50712;49.506;10.400;2022-09-06T00:59:56;98264.13;;;21.89
64394;BMP280;50712;49.506;10.400;2022-09-06T01:00:27;98258.56;;;21.89
64394;BMP280;50712;49.506;10.400;2022-09-06T01:00:58;98257.81;;;21.88
64394;BMP280;50712;49.506;10.400;2022-09-06T01:01:28;98259.81;;;21.88
64394;BMP280;50712;49.506;10.400;2022-09-06T01:01:59;98264.63;;;21.87
64394;BMP280;50712;49.506;10.400;2022-09-06T01:02:29;98261.09;;;21.86
64394;BMP280;50712;49.506;10.400;2022-09-06T01:03:00;98258.31;;;21.86
64394;BMP280;50712;49.506;10.400;2022-09-06T01:03:30;98254.06;;;21.86
64394;BMP280;50712;49.506;10.400;2022-09-06T01:04:01;98251.31;;;21.86
64394;BMP280;50712;49.506;10.400;2022-09-06T01:04:32;98251.31;;;21.86
64394;BMP280;50712;49.506;10.400;2022-09-06T01:05:03;98246.25;;;21.84
64394;BMP280;50712;49.506;10.400;2022-09-06T01:07:28;98247.53;;;21.83
64394;BMP280;50712;49.506;10.400;2022-09-06T01:08:40;98252.34;;;21.83
64394;BMP280;50712;49.506;10.400;2022-09-06T01:11:44;98250.59;;;21.79
64394;BMP280;50712;49.506;10.400;2022-09-06T01:12:24;98246.81;;;21.77
64394;BMP280;50712;49.506;10.400;2022-09-06T01:13:12;98247.56;;;21.77
64394;BMP280;50712;49.506;10.400;2022-09-06T01:15:38;98254.41;;;21.76
64394;BMP280;50712;49.506;10.400;2022-09-06T01:17:20;98245.84;;;21.74
64394;BMP280;50712;49.506;10.400;2022-09-06T01:17:59;98254.91;;;21.75
64394;BMP280;50712;49.506;10.400;2022-09-06T01:20:05;98250.41;;;21.72
64394;BMP280;50712;49.506;10.400;2022-09-06T01:21:47;98251.91;;;21.73
64394;BMP280;50712;49.506;10.400;2022-09-06T01:28:59;98260.06;;;21.65
64394;BMP280;50712;49.506;10.400;2022-09-06T01:30:15;98252.97;;;21.64
64394;BMP280;50712;49.506;10.400;2022-09-06T01:30:52;98248.19;;;21.65
64394;BMP280;50712;49.506;10.400;2022-09-06T01:31:32;98252.25;;;21.64
64394;BMP280;50712;49.506;10.400;2022-09-06T01:32:19;98255.75;;;21.64
64394;BMP280;50712;49.506;10.400;2022-09-06T01:33:00;98252.25;;;21.64
64394;BMP280;50712;49.506;10.400;2022-09-06T01:33:37;98252.25;;;21.64
64394;BMP280;50712;49.506;10.400;2022-09-06T01:34:27;98249.25;;;21.62
64394;BMP280;50712;49.506;10.400;2022-09-06T01:35:07;98244.44;;;21.62
64394;BMP280;50712;49.506;10.400;2022-09-06T01:35:47;98244.44;;;21.62
64394;BMP280;50712;49.506;10.400;2022-09-06T01:36:19;98252.78;;;21.62
64394;BMP280;50712;49.506;10.400;2022-09-06T01:37:08;98247.22;;;21.62
64394;BMP280;50712;49.506;10.400;2022-09-06T01:37:41;98243.69;;;21.62
64394;BMP280;50712;49.506;10.400;2022-09-06T01:38:12;98250.50;;;21.61
64394;BMP280;50712;49.506;10.400;2022-09-06T01:38:44;98253.25;;;21.61
64394;BMP280;50712;49.506;10.400;2022-09-06T01:39:21;98247.00;;;21.60
64394;BMP280;50712;49.506;10.400;2022-09-06T01:40:01;98249.00;;;21.60
64394;BMP280;50712;49.506;10.400;2022-09-06T01:40:31;98245.47;;;21.59
64394;BMP280;50712;49.506;10.400;2022-09-06T01:41:05;98246.75;;;21.58
64394;BMP280;50712;49.506;10.400;2022-09-06T01:41:35;98248.03;;;21.57
64394;BMP280;50712;49.506;10.400;2022-09-06T01:42:09;98252.28;;;21.58
64394;BMP280;50712;49.506;10.400;2022-09-06T01:42:43;98248.53;;;21.56
64394;BMP280;50712;49.506;10.400;2022-09-06T01:43:18;98250.03;;;21.57
64394;BMP280;50712;49.506;10.400;2022-09-06T01:43:55;98248.53;;;21.56
64394;BMP280;50712;49.506;10.400;2022-09-06T01:44:26;98247.75;;;21.55
64394;BMP280;50712;49.506;10.400;2022-09-06T01:45:00;98247.03;;;21.55
64394;BMP280;50712;49.506;10.400;2022-09-06T01:45:38;98245.53;;;21.54
64394;BMP280;50712;49.506;10.400;2022-09-06T01:46:51;98239.25;;;21.53
64394;BMP280;50712;49.506;10.400;2022-09-06T01:48:23;98246.59;;;21.51
64394;BMP280;50712;49.506;10.400;2022-09-06T01:50:38;98244.31;;;21.49
64394;BMP280;50712;49.506;10.400;2022-09-06T01:52:19;98238.00;;;21.49
64394;BMP280;50712;49.506;10.400;2022-09-06T01:53:59;98240.56;;;21.47
64394;BMP280;50712;49.506;10.400;2022-09-06T01:56:16;98240.56;;;21.47
64394;BMP280;50712;49.506;10.400;2022-09-06T01:57:37;98240.56;;;21.47
64394;BMP280;50712;49.506;10.400;2022-09-06T02:00:13;98247.34;;;21.46
64394;BMP280;50712;49.506;10.400;2022-09-06T02:01:39;98246.88;;;21.47
64394;BMP280;50712;49.506;10.400;2022-09-06T02:02:20;98240.56;;;21.47
64394;BMP280;50712;49.506;10.400;2022-09-06T02:04:42;98244.59;;;21.46
64394;BMP280;50712;49.506;10.400;2022-09-06T02:05:19;98247.34;;;21.46
64394;BMP280;50712;49.506;10.400;2022-09-06T02:06:08;98240.31;;;21.45
64394;BMP280;50712;49.506;10.400;2022-09-06T02:06:45;98248.63;;;21.45
64394;BMP280;50712;49.506;10.400;2022-09-06T02:07:24;98243.09;;;21.45
64394;BMP280;50712;49.506;10.400;2022-09-06T02:07:58;98245.88;;;21.45
64394;BMP280;50712;49.506;10.400;2022-09-06T02:08:30;98246.09;;;21.47
64394;BMP280;50712;49.506;10.400;2022-09-06T02:09:10;98232.00;;;21.45
64394;BMP280;50712;49.506;10.400;2022-09-06T02:09:48;98241.06;;;21.45
64394;BMP280;50712;49.506;10.400;2022-09-06T02:10:26;98246.59;;;21.45
64394;BMP280;50712;49.506;10.400;2022-09-06T02:11:01;98246.59;;;21.45
64394;BMP280;50712;49.506;10.400;2022-09-06T02:11:38;98248.63;;;21.45
64394;BMP280;50712;49.506;10.400;2022-09-06T02:12:22;98243.09;;;21.45
64394;BMP280;50712;49.506;10.400;2022-09-06T02:12:58;98249.88;;;21.44
64394;BMP280;50712;49.506;10.400;2022-09-06T02:13:33;98245.09;;;21.44
64394;BMP280;50712;49.506;10.400;2022-09-06T02:14:10;98245.63;;;21.43
64394;BMP280;50712;49.506;10.400;2022-09-06T02:14:50;98245.63;;;21.43
64394;BMP280;50712;49.506;10.400;2022-09-06T02:15:28;98237.84;;;21.41
64394;BMP280;50712;49.506;10.400;2022-09-06T02:16:03;98240.59;;;21.41
64394;BMP280;50712;49.506;10.400;2022-09-06T02:16:36;98241.84;;;21.40
64394;BMP280;50712;49.506;10.400;2022-09-06T02:17:11;98247.41;;;21.40
64394;BMP280;50712;49.506;10.400;2022-09-06T02:17:49;98239.09;;;21.40
64394;BMP280;50712;49.506;10.400;2022-09-06T02:18:46;98236.84;;;21.39
64394;BMP280;50712;49.506;10.400;2022-09-06T02:19:35;98252.75;;;21.38
64394;BMP280;50712;49.506;10.400;2022-09-06T02:20:17;98243.66;;;21.38
64394;BMP280;50712;49.506;10.400;2022-09-06T02:20:53;98247.69;;;21.37
64394;BMP280;50712;49.506;10.400;2022-09-06T02:21:27;98246.94;;;21.36
64394;BMP280;50712;49.506;10.400;2022-09-06T02:22:02;98239.88;;;21.35
64394;BMP280;50712;49.506;10.400;2022-09-06T02:22:38;98245.44;;;21.35
64394;BMP280;50712;49.506;10.400;2022-09-06T02:23:11;98247.47;;;21.35
64394;BMP280;50712;49.506;10.400;2022-09-06T02:23:43;98244.44;;;21.33
64394;BMP280;50712;49.506;10.400;2022-09-06T02:24:18;98244.44;;;21.33
64394;BMP280;50712;49.506;10.400;2022-09-06T02:24:52;98242.94;;;21.32
64394;BMP280;50712;49.506;10.400;2022-09-06T02:25:25;98236.66;;;21.31
64394;BMP280;50712;49.506;10.400;2022-09-06T02:26:41;98238.69;;;21.31
64394;BMP280;50712;49.506;10.400;2022-09-06T02:27:12;98247.00;;;21.31
64394;BMP280;50712;49.506;10.400;2022-09-06T02:27:43;98238.69;;;21.31
64394;BMP280;50712;49.506;10.400;2022-09-06T02:28:14;98242.69;;;21.30
64394;BMP280;50712;49.506;10.400;2022-09-06T02:28:45;98246.22;;;21.30
64394;BMP280;50712;49.506;10.400;2022-09-06T02:29:16;98248.25;;;21.30
64394;BMP280;50712;49.506;10.400;2022-09-06T02:29:47;98246.75;;;21.29
64394;BMP280;50712;49.506;10.400;2022-09-06T02:30:17;98241.72;;;21.27
64394;BMP280;50712;49.506;10.400;2022-09-06T02:30:49;98243.22;;;21.28
64394;BMP280;50712;49.506;10.400;2022-09-06T02:32:05;98253.53;;;21.28
64394;BMP280;50712;49.506;10.400;2022-09-06T02:32:49;98251.28;;;21.26
64394;BMP280;50712;49.506;10.400;2022-09-06T02:33:27;98250.56;;;21.26
64394;BMP280;50712;49.506;10.400;2022-09-06T02:34:00;98244.25;;;21.25
64394;BMP280;50712;49.506;10.400;2022-09-06T02:34:31;98244.25;;;21.25
64394;BMP280;50712;49.506;10.400;2022-09-06T02:35:05;98244.25;;;21.25
64394;BMP280;50712;49.506;10.400;2022-09-06T02:35:43;98249.03;;;21.25
64394;BMP280;50712;49.506;10.400;2022-09-06T02:36:15;98244.75;;;21.24
64394;BMP280;50712;49.506;10.400;2022-09-06T02:36:46;98241.25;;;21.23
64394;BMP280;50712;49.506;10.400;2022-09-06T02:37:18;98234.22;;;21.22
64394;BMP280;50712;49.506;10.400;2022-09-06T02:37:48;98246.78;;;21.23
64394;BMP280;50712;49.506;10.400;2022-09-06T02:38:23;98234.22;;;21.22
64394;BMP280;50712;49.506;10.400;2022-09-06T02:38:55;98237.75;;;21.23
64394;BMP280;50712;49.506;10.400;2022-09-06T02:39:28;98236.22;;;21.22
64394;BMP280;50712;49.506;10.400;2022-09-06T02:39:59;98236.97;;;21.22
64394;BMP280;50712;49.506;10.400;2022-09-06T02:40:29;98232.69;;;21.21
64394;BMP280;50712;49.506;10.400;2022-09-06T02:40:59;98229.91;;;21.21
64394;BMP280;50712;49.506;10.400;2022-09-06T02:41:31;98231.94;;;21.21
64394;BMP280;50712;49.506;10.400;2022-09-06T02:42:02;98231.94;;;21.21
64394;BMP280;50712;49.506;10.400;2022-09-06T02:42:34;98240.78;;;21.19
64394;BMP280;50712;49.506;10.400;2022-09-06T02:43:04;98236.72;;;21.20
64394;BMP280;50712;49.506;10.400;2022-09-06T02:43:35;98228.94;;;21.19
64394;BMP280;50712;49.506;10.400;2022-09-06T02:44:05;98231.72;;;21.19
64394;BMP280;50712;49.506;10.400;2022-09-06T02:44:36;98230.19;;;21.18
64394;BMP280;50712;49.506;10.400;2022-09-06T02:45:06;98228.69;;;21.17
64394;BMP280;50712;49.506;10.400;2022-09-06T02:45:38;98237.75;;;21.17
64394;BMP280;50712;49.506;10.400;2022-09-06T02:46:08;98231.44;;;21.17
64394;BMP280;50712;49.506;10.400;2022-09-06T02:46:39;98229.97;;;21.16
64394;BMP280;50712;49.506;10.400;2022-09-06T02:47:09;98236.03;;;21.14
64394;BMP280;50712;49.506;10.400;2022-09-06T02:47:40;98238.78;;;21.14
64394;BMP280;50712;49.506;10.400;2022-09-06T02:48:10;98235.25;;;21.14
64394;BMP280;50712;49.506;10.400;2022-09-06T02:48:40;98233.75;;;21.13
64394;BMP280;50712;49.506;10.400;2022-09-06T02:49:11;98230.22;;;21.12
64394;BMP280;50712;49.506;10.400;2022-09-06T02:49:41;98235.78;;;21.12
64394;BMP280;50712;49.506;10.400;2022-09-06T02:50:11;98235.53;;;21.10
64394;BMP280;50712;49.506;10.400;2022-09-06T02:50:42;98232.75;;;21.10
64394;BMP280;50712;49.506;10.400;2022-09-06T02:51:12;98234.81;;;21.10
64394;BMP280;50712;49.506;10.400;2022-09-06T02:51:42;98238.31;;;21.10
64394;BMP280;50712;49.506;10.400;2022-09-06T02:52:13;98239.59;;;21.09
64394;BMP280;50712;49.506;10.400;2022-09-06T02:52:44;98236.81;;;21.09
64394;BMP280;50712;49.506;10.400;2022-09-06T02:53:14;98236.81;;;21.09
64394;BMP280;50712;49.506;10.400;2022-09-06T02:53:45;98238.31;;;21.10
64394;BMP280;50712;49.506;10.400;2022-09-06T02:54:15;98241.59;;;21.09
64394;BMP280;50712;49.506;10.400;2022-09-06T02:54:46;98236.56;;;21.07
64394;BMP280;50712;49.506;10.400;2022-09-06T02:55:16;98239.34;;;21.07
64394;BMP280;50712;49.506;10.400;2022-09-06T02:55:46;98234.31;;;21.06
64394;BMP280;50712;49.506;10.400;2022-09-06T02:56:17;98229.53;;;21.06
64394;BMP280;50712;49.506;10.400;2022-09-06T02:56:48;98230.78;;;21.05
64394;BMP280;50712;49.506;10.400;2022-09-06T02:57:18;98231.56;;;21.06
64394;BMP280;50712;49.506;10.400;2022-09-06T02:57:49;98228.00;;;21.05
64394;BMP280;50712;49.506;10.400;2022-09-06T02:58:19;98228.00;;;21.05
64394;BMP280;50712;49.506;10.400;2022-09-06T02:58:49;98229.53;;;21.06
64394;BMP280;50712;49.506;10.400;2022-09-06T02:59:19;98226.00;;;21.06
64394;BMP280;50712;49.506;10.400;2022-09-06T02:59:50;98221.22;;;21.06
64394;BMP280;50712;49.506;10.400;2022-09-06T03:00:21;98225.50;;;21.07
64394;BMP280;50712;49.506;10.400;2022-09-06T03:00:51;98226.97;;;21.08
64394;BMP280;50712;49.506;10.400;2022-09-06T03:01:22;98219.94;;;21.07
64394;BMP280;50712;49.506;10.400;2022-09-06T03:01:52;98224.97;;;21.09
64394;BMP280;50712;49.506;10.400;2022-09-06T03:02:23;98225.72;;;21.09
64394;BMP280;50712;49.506;10.400;2022-09-06T03:02:54;98230.50;;;21.09
64394;BMP280;50712;49.506;10.400;2022-09-06T03:03:25;98223.72;;;21.10
64394;BMP280;50712;49.506;10.400;2022-09-06T03:03:56;98224.97;;;21.09
64394;BMP280;50712;49.506;10.400;2022-09-06T03:04:26;98222.19;;;21.09
64394;BMP280;50712;49.506;10.400;2022-09-06T03:04:57;98218.91;;;21.10
64394;BMP280;50712;49.506;10.400;2022-09-06T03:05:27;98225.72;;;21.09
64394;BMP280;50712;49.506;10.400;2022-09-06T03:05:58;98221.44;;;21.08
64394;BMP280;50712;49.506;10.400;2022-09-06T03:06:29;98215.41;;;21.10
64394;BMP280;50712;49.506;10.400;2022-09-06T03:07:00;98219.44;;;21.09
64394;BMP280;50712;49.506;10.400;2022-09-06T03:07:30;98226.50;;;21.10
64394;BMP280;50712;49.506;10.400;2022-09-06T03:08:00;98215.13;;;21.08
64394;BMP280;50712;49.506;10.400;2022-09-06T03:08:31;98219.44;;;21.09
64394;BMP280;50712;49.506;10.400;2022-09-06T03:09:03;98214.66;;;21.09
64394;BMP280;50712;49.506;10.400;2022-09-06T03:09:33;98216.13;;;21.10
64394;BMP280;50712;49.506;10.400;2022-09-06T03:10:04;98218.19;;;21.10
64394;BMP280;50712;49.506;10.400;2022-09-06T03:10:37;98213.38;;;21.10
64394;BMP280;50712;49.506;10.400;2022-09-06T03:11:07;98218.91;;;21.10
64394;BMP280;50712;49.506;10.400;2022-09-06T03:11:38;98203.81;;;21.11
64394;BMP280;50712;49.506;10.400;2022-09-06T03:12:08;98217.66;;;21.11
64394;BMP280;50712;49.506;10.400;2022-09-06T03:12:40;98216.38;;;21.12
64394;BMP280;50712;49.506;10.400;2022-09-06T03:13:11;98212.13;;;21.11
64394;BMP280;50712;49.506;10.400;2022-09-06T03:13:42;98218.38;;;21.12
64394;BMP280;50712;49.506;10.400;2022-09-06T03:14:12;98215.63;;;21.12
64394;BMP280;50712;49.506;10.400;2022-09-06T03:14:45;98220.66;;;21.13
64394;BMP280;50712;49.506;10.400;2022-09-06T03:15:15;98217.91;;;21.13
64394;BMP280;50712;49.506;10.400;2022-09-06T03:15:49;98215.13;;;21.13
64394;BMP280;50712;49.506;10.400;2022-09-06T03:16:25;98220.16;;;21.15
64394;BMP280;50712;49.506;10.400;2022-09-06T03:16:55;98216.63;;;21.14
64394;BMP280;50712;49.506;10.400;2022-09-06T03:17:26;98220.91;;;21.15
64394;BMP280;50712;49.506;10.400;2022-09-06T03:17:59;98216.84;;;21.16
64394;BMP280;50712;49.506;10.400;2022-09-06T03:18:29;98227.19;;;21.16
64394;BMP280;50712;49.506;10.400;2022-09-06T03:19:00;98219.63;;;21.16
64394;BMP280;50712;49.506;10.400;2022-09-06T03:19:30;98221.13;;;21.17
64394;BMP280;50712;49.506;10.400;2022-09-06T03:20:01;98223.41;;;21.19
64394;BMP280;50712;49.506;10.400;2022-09-06T03:20:31;98223.41;;;21.19
64394;BMP280;50712;49.506;10.400;2022-09-06T03:21:02;98220.63;;;21.19
64394;BMP280;50712;49.506;10.400;2022-09-06T03:21:32;98224.88;;;21.20
64394;BMP280;50712;49.506;10.400;2022-09-06T03:22:03;98224.88;;;21.20
64394;BMP280;50712;49.506;10.400;2022-09-06T03:22:33;98219.31;;;21.20
64394;BMP280;50712;49.506;10.400;2022-09-06T03:23:03;98220.34;;;21.22
64394;BMP280;50712;49.506;10.400;2022-09-06T03:23:34;98222.38;;;21.22
64394;BMP280;50712;49.506;10.400;2022-09-06T03:24:04;98224.63;;;21.23
64394;BMP280;50712;49.506;10.400;2022-09-06T03:24:35;98219.81;;;21.24
64394;BMP280;50712;49.506;10.400;2022-09-06T03:25:06;98220.56;;;21.24
64394;BMP280;50712;49.506;10.400;2022-09-06T03:25:37;98220.56;;;21.24
64394;BMP280;50712;49.506;10.400;2022-09-06T03:26:08;98217.31;;;21.26
64394;BMP280;50712;49.506;10.400;2022-09-06T03:26:38;98216.53;;;21.25
64394;BMP280;50712;49.506;10.400;2022-09-06T03:27:08;98220.06;;;21.26
64394;BMP280;50712;49.506;10.400;2022-09-06T03:27:39;98222.09;;;21.25
64394;BMP280;50712;49.506;10.400;2022-09-06T03:28:09;98218.56;;;21.25
64394;BMP280;50712;49.506;10.400;2022-09-06T03:28:40;98219.31;;;21.25
64394;BMP280;50712;49.506;10.400;2022-09-06T03:29:11;98211.75;;;21.26
64394;BMP280;50712;49.506;10.400;2022-09-06T03:29:42;98209.72;;;21.26
64394;BMP280;50712;49.506;10.400;2022-09-06T03:30:12;98212.50;;;21.26
64394;BMP280;50712;49.506;10.400;2022-09-06T03:30:43;98209.72;;;21.26
64394;BMP280;50712;49.506;10.400;2022-09-06T03:31:15;98211.22;;;21.27
64394;BMP280;50712;49.506;10.400;2022-09-06T03:31:46;98207.69;;;21.27
64394;BMP280;50712;49.506;10.400;2022-09-06T03:32:16;98204.41;;;21.28
64394;BMP280;50712;49.506;10.400;2022-09-06T03:32:46;98203.66;;;21.28
64394;BMP280;50712;49.506;10.400;2022-09-06T03:33:18;98206.44;;;21.28
64394;BMP280;50712;49.506;10.400;2022-09-06T03:33:48;98205.16;;;21.29
64394;BMP280;50712;49.506;10.400;2022-09-06T03:34:19;98205.16;;;21.29
64394;BMP280;50712;49.506;10.400;2022-09-06T03:34:49;98200.88;;;21.28
64394;BMP280;50712;49.506;10.400;2022-09-06T03:35:20;98206.44;;;21.28
64394;BMP280;50712;49.506;10.400;2022-09-06T03:35:57;98206.22;;;21.26
64394;BMP280;50712;49.506;10.400;2022-09-06T03:36:29;98206.22;;;21.26
64394;BMP280;50712;49.506;10.400;2022-09-06T03:36:59;98203.94;;;21.24